Portada
METAR-TAF:

METAR-TAF

Aeroports :

Thomson-McDuffie County Airport

Thomson, Geòrgia, Estats Units d'Amèrica

latitud: 33-31-46N, longitud: 082-30-59W, altitud: 152 m

Observació

L'informe es va fer fa 9 minuts, a les 04:35 UTC
Vent 3 kt del Oest
Temperatura 24°C
Humitat 94%
Pressió 1019 hPa
Visibilitat: 16.1 km
Cel clar

METAR: KHQU 220435Z AUTO 26003KT 10SM CLR 24/23 A3009 RMK AO2 T02430228

Hora: 00:44 (04:44 UTC)


TAF: manca

Observacions i pronòstics meteorològics de més de 4000 aeroports (METAR i TAF).

Les estacions disponibles són els punts grocs i vermells al mapa.

Posi el ratolí al punt desitjat per veure el nom de l'estació.

Feu clic per veure les observacions i els pronòstics meteorològics.

Per canviar el mapa: feu clic els botons verds amb una creu de color negre per apropar; al botó verd amb un guió per allunyar la imatge; o en les fletxes verdes per a mapes adjacents.


METAR-TAF: